Ellistown, Mississippi
Current Conditions -  °F | °C
As of 12:35 AM on Friday 31 Oct 2014 (Local Time) from KCRX Reporting Station
Broken Clouds Broken Clouds  
Wind Chill: 48°   Ceiling: 8500
Heat Index: 48°   Visibility: 10mi
Dew Point: 46°   Wind: 0mph
Humidity: 93%   Direction: NA
Pressure: 30.01"   Gusts: NA
Location:  34.5651°N, 88.1896°W
Report Text: KCRX 310535Z AUTO 00000KT 10SM BKN085 BKN110 09/08 A3001 RMK AO2
Loading
Personal Weather Stations






























Interactive Weather Map
Tropical Storm Tracking
New forecast layout! Learn more

10-Day Weather Forecast

Advertisements
Track Severe Weather on mobile